Time;durP1;ratioP1;P1;durP2;ratioP2;P2;SDS_P1;SDS_P2;PMS_P1;PMS_P2;Temp;Humidity;BMP_temperature;BMP_pressure;BME280_temperature;BME280_humidity;BME280_pressure;Samples;Min_cycle;Max_cycle;Signal;HPM_P1;HPM_P2
2023/06/07 00:02:11;;;;;;;11.88;2.88;;;;;;;13.82;74.45;101860.34;7360964;19;20018;-62
2023/06/07 00:04:48;;;;;;;6.57;2.65;;;;;;;13.76;74.52;101855.69;7363210;19;20022;-62
2023/06/07 00:07:15;;;;;;;8.35;2.75;;;;;;;13.71;74.74;101856.09;7360282;19;20037;-63
2023/06/07 00:09:42;;;;;;;8.20;2.60;;;;;;;13.77;74.80;101853.84;7361208;19;20020;-63
2023/06/07 00:12:10;;;;;;;7.15;2.85;;;;;;;13.62;75.10;101853.50;7363630;19;20014;-62
2023/06/07 00:14:37;;;;;;;6.45;2.28;;;;;;;13.65;75.02;101856.72;7362561;19;20015;-62
2023/06/07 00:17:04;;;;;;;7.90;2.58;;;;;;;13.65;75.18;101856.72;7358706;19;20014;-64
2023/06/07 00:19:31;;;;;;;9.93;2.70;;;;;;;13.64;75.40;101851.56;7361767;19;20086;-62
2023/06/07 00:22:01;;;;;;;10.52;2.85;;;;;;;13.61;75.51;101844.72;7360466;19;20082;-62
2023/06/07 00:24:29;;;;;;;10.25;2.85;;;;;;;13.66;75.54;101852.25;7362026;19;20022;-64
2023/06/07 00:26:56;;;;;;;6.45;2.88;;;;;;;13.68;75.79;101850.28;7361246;19;20010;-63
2023/06/07 00:29:23;;;;;;;5.55;1.92;;;;;;;13.75;75.87;101847.88;7361669;19;20022;-63
2023/06/07 00:31:50;;;;;;;5.18;2.20;;;;;;;13.86;74.71;101850.31;7359440;19;20010;-63
2023/06/07 00:34:18;;;;;;;7.03;2.45;;;;;;;13.89;74.77;101848.22;7362097;19;20021;-63
2023/06/07 00:36:47;;;;;;;4.75;1.98;;;;;;;13.91;74.66;101846.25;7359424;19;20109;-63
2023/06/07 00:39:14;;;;;;;3.35;1.75;;;;;;;13.99;75.32;101840.19;7359819;19;20609;-63
2023/06/07 00:41:42;;;;;;;7.78;2.78;;;;;;;14.01;74.68;101839.09;7361946;19;20019;-63
2023/06/07 00:44:11;;;;;;;6.30;2.25;;;;;;;14.07;74.03;101842.91;7361536;19;20023;-63
2023/06/07 00:46:39;;;;;;;5.32;1.98;;;;;;;14.02;74.17;101845.19;7359498;19;20020;-63
2023/06/07 00:49:06;;;;;;;8.80;2.58;;;;;;;13.96;74.55;101849.28;7361522;19;20024;-62
2023/06/07 00:51:33;;;;;;;9.77;3.72;;;;;;;13.92;74.83;101852.34;7361189;19;20014;-62
2023/06/07 00:54:04;;;;;;;7.70;2.42;;;;;;;13.78;74.97;101853.69;7361668;19;20029;-62
2023/06/07 00:56:31;;;;;;;8.45;2.65;;;;;;;13.82;75.12;101854.22;7358051;19;20520;-63
2023/06/07 00:58:58;;;;;;;11.25;2.10;;;;;;;13.82;74.99;101851.56;7361476;19;20463;-64
2023/06/07 01:01:27;;;;;;;8.55;2.35;;;;;;;13.81;74.69;101848.13;7359734;19;20062;-63
2023/06/07 01:03:54;;;;;;;7.45;2.28;;;;;;;13.75;74.50;101845.22;7360486;19;20352;-62
2023/06/07 01:06:22;;;;;;;6.40;2.78;;;;;;;13.70;74.67;101835.94;7361565;19;20828;-62
2023/06/07 01:08:51;;;;;;;6.45;2.40;;;;;;;13.71;74.85;101842.06;7360371;19;20086;-63
2023/06/07 01:11:21;;;;;;;7.85;2.92;;;;;;;13.63;74.67;101837.50;7360483;19;20493;-63
2023/06/07 01:13:49;;;;;;;8.43;2.97;;;;;;;13.53;74.66;101835.88;7361075;19;20014;-64
2023/06/07 01:16:17;;;;;;;6.97;2.42;;;;;;;13.50;74.85;101830.91;7358122;19;20105;-63
2023/06/07 01:18:46;;;;;;;4.47;2.03;;;;;;;13.45;75.11;101827.84;7356328;19;20019;-63
2023/06/07 01:21:18;;;;;;;10.35;2.97;;;;;;;13.40;75.06;101832.75;7361386;19;20028;-62
2023/06/07 01:23:45;;;;;;;;;;;;;;;13.34;75.41;101839.44;7360319;19;20094;-62
2023/06/07 01:26:13;;;;;;;6.65;2.28;;;;;;;13.30;75.69;101829.31;7360541;19;19940;-63
2023/06/07 01:28:42;;;;;;;8.93;2.40;;;;;;;13.18;75.72;101826.84;7359078;19;20018;-63
2023/06/07 01:31:10;;;;;;;7.55;2.50;;;;;;;13.21;76.13;101818.63;7358817;19;20032;-63
2023/06/07 01:33:38;;;;;;;5.35;2.00;;;;;;;13.23;76.10;101835.19;7358343;19;20015;-62
2023/06/07 01:36:06;;;;;;;7.03;3.00;;;;;;;13.16;76.22;101835.88;7359933;19;20117;-62
2023/06/07 01:38:33;;;;;;;7.22;2.60;;;;;;;13.18;76.57;101823.38;7358780;19;20018;-62
2023/06/07 01:41:01;;;;;;;5.30;2.13;;;;;;;13.21;76.55;101825.72;7361717;19;20086;-62
2023/06/07 01:43:30;;;;;;;7.10;2.50;;;;;;;13.21;76.50;101829.19;7361319;19;20462;-63
2023/06/07 01:45:58;;;;;;;4.93;2.35;;;;;;;13.18;76.73;101823.38;7358233;19;20052;-63
2023/06/07 01:48:26;;;;;;;7.75;2.72;;;;;;;13.14;76.70;101819.38;7354284;19;21613;-63
2023/06/07 01:50:53;;;;;;;7.88;2.63;;;;;;;13.16;76.68;101822.69;7367017;19;20499;-64
2023/06/07 01:53:20;;;;;;;6.50;2.47;;;;;;;13.15;76.82;101821.88;7366990;19;20018;-62
2023/06/07 01:56:03;;;;;;;11.10;2.85;;;;;;;13.18;76.67;101815.44;7368554;19;20011;-64
2023/06/07 01:58:48;;;;;;;10.43;2.78;;;;;;;13.13;76.83;101818.53;7368025;19;20015;-63
2023/06/07 02:01:25;;;;;;;9.27;2.72;;;;;;;13.01;77.17;101830.22;7364379;19;20011;-62
2023/06/07 02:03:55;;;;;;;7.82;2.42;;;;;;;13.03;77.50;101819.50;7365680;19;20034;-63
2023/06/07 02:06:33;;;;;;;7.50;2.58;;;;;;;13.06;77.59;101827.13;7364006;19;21657;-63
2023/06/07 02:09:06;;;;;;;5.32;2.45;;;;;;;13.09;77.43;101827.69;7364844;19;20486;-62
2023/06/07 02:11:34;;;;;;;8.93;2.80;;;;;;;13.12;77.39;101818.66;7366442;19;20423;-63
2023/06/07 02:14:01;;;;;;;9.35;2.60;;;;;;;13.10;76.90;101831.19;7366213;19;20024;-62
2023/06/07 02:16:35;;;;;;;8.68;3.38;;;;;;;13.14;77.02;101816.72;7363012;19;20078;-63
2023/06/07 02:19:06;;;;;;;10.23;2.80;;;;;;;13.15;77.33;101816.59;7365375;19;20081;-62
2023/06/07 02:21:36;;;;;;;7.68;2.72;;;;;;;13.20;77.30;101816.16;7365691;19;20022;-64
2023/06/07 02:24:05;;;;;;;9.38;2.97;;;;;;;13.28;76.73;101816.25;7367810;19;20027;-62
2023/06/07 02:26:33;;;;;;;10.38;3.00;;;;;;;13.29;76.36;101815.28;7364649;19;20020;-63
2023/06/07 02:29:01;;;;;;;13.80;3.13;;;;;;;13.29;76.52;101823.19;7365792;19;20968;-62
2023/06/07 02:31:29;;;;;;;7.57;2.63;;;;;;;13.24;76.44;101810.44;7363004;19;20070;-63
2023/06/07 02:33:56;;;;;;;8.60;2.92;;;;;;;13.16;76.73;101804.19;7364860;19;20026;-63
2023/06/07 02:36:25;;;;;;;8.75;3.35;;;;;;;12.98;77.56;101804.09;7366868;19;20015;-63
2023/06/07 02:38:52;;;;;;;9.32;2.50;;;;;;;13.04;77.74;101800.03;7364743;19;20025;-63
2023/06/07 02:41:21;;;;;;;7.35;3.47;;;;;;;13.04;77.38;101795.59;7365998;19;20779;-63
2023/06/07 02:43:48;;;;;;;8.73;3.10;;;;;;;12.91;78.02;101800.34;7364182;19;20117;-63
2023/06/07 02:46:15;;;;;;;9.07;3.00;;;;;;;12.94;78.21;101799.25;7364669;19;20483;-63
2023/06/07 02:48:42;;;;;;;6.43;3.08;;;;;;;12.90;78.20;101803.97;7356601;19;20698;-63
2023/06/07 02:51:09;;;;;;;8.07;3.53;;;;;;;12.86;79.02;101799.94;7364687;19;20018;-62
2023/06/07 02:53:37;;;;;;;8.13;2.83;;;;;;;12.84;79.24;101807.19;7364709;19;20619;-61
2023/06/07 02:56:04;;;;;;;7.93;2.90;;;;;;;12.87;79.44;101791.03;7364943;19;20018;-62
2023/06/07 02:58:31;;;;;;;10.73;3.35;;;;;;;12.89;79.37;101783.00;7364518;19;21933;-63
2023/06/07 03:00:58;;;;;;;8.20;3.22;;;;;;;12.92;79.77;101798.53;7361099;19;20026;-62
2023/06/07 03:03:25;;;;;;;7.13;3.45;;;;;;;12.96;78.93;101792.81;7362224;19;20026;-62
2023/06/07 03:05:53;;;;;;;8.27;2.78;;;;;;;12.99;78.79;101787.25;7364891;19;20049;-63
2023/06/07 03:08:20;;;;;;;6.45;2.90;;;;;;;12.89;78.65;101786.47;7361619;19;20018;-62
2023/06/07 03:10:47;;;;;;;10.23;3.55;;;;;;;12.86;79.14;101799.94;7364917;19;20006;-63
2023/06/07 03:13:14;;;;;;;8.35;2.47;;;;;;;12.89;79.18;101804.97;7360693;19;20093;-62
2023/06/07 03:15:42;;;;;;;7.20;3.15;;;;;;;12.92;78.73;101795.91;7363554;19;20019;-62
2023/06/07 03:18:09;;;;;;;5.88;2.92;;;;;;;12.98;78.84;101797.97;7361043;19;20943;-65
2023/06/07 03:20:36;;;;;;;6.63;3.15;;;;;;;13.00;78.55;101796.88;7365237;19;20143;-63
2023/06/07 03:23:04;;;;;;;12.65;3.08;;;;;;;13.05;78.46;101785.84;7361859;19;20485;-62
2023/06/07 03:25:31;;;;;;;8.07;2.70;;;;;;;13.08;78.66;101809.34;7363698;19;20030;-63
2023/06/07 03:27:59;;;;;;;5.53;2.55;;;;;;;13.00;78.19;101801.31;7361756;19;20056;-63
2023/06/07 03:30:26;;;;;;;8.40;3.00;;;;;;;13.00;78.36;101796.88;7363606;19;20078;-62
2023/06/07 03:32:53;;;;;;;9.13;2.75;;;;;;;12.89;78.90;101798.84;7360418;19;20014;-62
2023/06/07 03:35:21;;;;;;;8.43;3.20;;;;;;;12.75;79.11;101798.31;7361353;19;20011;-63
2023/06/07 03:37:48;;;;;;;6.97;3.30;;;;;;;12.72;79.74;101797.75;7362347;19;20029;-62
2023/06/07 03:40:15;;;;;;;9.55;3.67;;;;;;;12.77;79.62;101795.53;7363258;19;20731;-63
2023/06/07 03:42:42;;;;;;;6.82;3.40;;;;;;;12.83;79.47;101789.69;7363984;19;20455;-62
2023/06/07 03:45:09;;;;;;;4.78;2.65;;;;;;;12.87;79.58;101788.41;7361699;19;20024;-63
2023/06/07 03:47:37;;;;;;;6.97;2.67;;;;;;;12.90;79.27;101782.81;7358542;19;20014;-63
2023/06/07 03:50:05;;;;;;;9.82;2.75;;;;;;;12.95;79.43;101795.63;7363150;19;20034;-63
2023/06/07 03:52:32;;;;;;;7.05;2.80;;;;;;;12.95;78.76;101783.25;7361586;19;20047;-63
2023/06/07 03:55:00;;;;;;;6.38;2.90;;;;;;;12.92;78.99;101780.06;7362993;19;20391;-63
2023/06/07 03:57:27;;;;;;;13.98;4.40;;;;;;;12.94;78.78;101786.88;7362107;19;20020;-62
2023/06/07 03:59:54;;;;;;;10.75;3.00;;;;;;;12.94;79.21;101784.22;7361798;19;20123;-65
2023/06/07 04:02:21;;;;;;;7.35;2.80;;;;;;;12.94;79.21;101786.03;7358562;19;20101;-62
2023/06/07 04:04:49;;;;;;;7.95;3.42;;;;;;;12.92;78.96;101783.53;7363087;19;20011;-63
2023/06/07 04:07:16;;;;;;;10.85;3.35;;;;;;;12.96;78.99;101784.91;7361451;19;20371;-63
2023/06/07 04:09:43;;;;;;;7.45;3.28;;;;;;;12.97;78.82;101776.00;7363313;19;20037;-62
2023/06/07 04:12:10;;;;;;;5.95;2.67;;;;;;;12.99;78.77;101783.78;7361421;19;20022;-63
2023/06/07 04:14:37;;;;;;;10.52;3.25;;;;;;;12.96;79.03;101773.50;7361748;19;20039;-62
2023/06/07 04:17:04;;;;;;;9.05;2.90;;;;;;;12.94;79.15;101778.09;7360087;19;20322;-63
2023/06/07 04:19:32;;;;;;;7.95;3.30;;;;;;;12.81;79.42;101778.41;7361616;19;20018;-62
2023/06/07 04:21:59;;;;;;;6.47;2.53;;;;;;;12.80;79.65;101774.94;7362564;19;20015;-63
2023/06/07 04:24:26;;;;;;;7.10;3.22;;;;;;;12.77;79.63;101784.97;7361596;19;20014;-63
2023/06/07 04:26:53;;;;;;;8.07;3.03;;;;;;;12.81;79.68;101786.34;7362375;19;20531;-63
2023/06/07 04:29:21;;;;;;;9.95;2.95;;;;;;;12.73;79.97;101789.72;7359896;19;20014;-62
2023/06/07 04:31:49;;;;;;;10.38;4.18;;;;;;;12.71;80.42;101786.38;7358160;19;20010;-62
2023/06/07 04:34:17;;;;;;;9.02;3.15;;;;;;;12.74;80.37;101788.75;7360268;19;20021;-62
2023/06/07 04:36:49;;;;;;;7.20;3.67;;;;;;;12.67;80.54;101779.72;7362522;19;20461;-63
2023/06/07 04:39:18;;;;;;;10.73;3.10;;;;;;;12.73;80.46;101786.22;7361075;19;20010;-63
2023/06/07 04:41:45;;;;;;;7.38;2.88;;;;;;;12.77;80.11;101783.16;7359958;19;20055;-62
2023/06/07 04:44:12;;;;;;;8.65;3.35;;;;;;;12.80;80.01;101784.66;7360921;19;20022;-63
2023/06/07 04:46:40;;;;;;;7.43;3.40;;;;;;;12.83;79.89;101784.41;7357511;19;20007;-63
2023/06/07 04:49:07;;;;;;;9.38;3.83;;;;;;;12.83;80.20;101792.31;7357568;19;20014;-63
2023/06/07 04:51:38;;;;;;;8.93;3.55;;;;;;;12.86;79.88;101798.13;7360898;19;20025;-62
2023/06/07 04:54:05;;;;;;;8.48;3.55;;;;;;;12.81;79.84;101795.09;7361574;19;20335;-62
2023/06/07 04:56:32;;;;;;;10.63;3.50;;;;;;;12.77;79.65;101795.53;7358935;19;20026;-62
2023/06/07 04:59:00;;;;;;;8.70;3.50;;;;;;;12.75;79.83;101798.31;7361173;19;20029;-62
2023/06/07 05:01:28;;;;;;;7.32;3.25;;;;;;;12.77;79.83;101798.16;7359585;19;20052;-62
2023/06/07 05:04:00;;;;;;;7.80;3.28;;;;;;;12.79;80.01;101804.16;7359402;19;20039;-63
2023/06/07 05:06:28;;;;;;;8.40;3.20;;;;;;;12.75;79.81;101800.09;7361851;19;20034;-63
2023/06/07 05:08:55;;;;;;;7.43;2.85;;;;;;;12.67;80.18;101806.13;7360055;19;20041;-62
2023/06/07 05:11:23;;;;;;;7.05;2.72;;;;;;;12.70;80.25;101797.91;7360115;19;20039;-63
2023/06/07 05:13:50;;;;;;;8.32;2.97;;;;;;;12.76;79.67;101799.97;7360332;19;20046;-63
2023/06/07 05:16:17;;;;;;;5.13;3.00;;;;;;;12.79;79.71;101790.94;7358288;19;20078;-62
2023/06/07 05:18:49;;;;;;;8.90;3.63;;;;;;;12.84;79.46;101796.63;7360721;19;20021;-63
2023/06/07 05:21:16;;;;;;;9.10;3.33;;;;;;;12.87;79.45;101796.34;7357440;19;20144;-63
2023/06/07 05:23:44;;;;;;;7.97;2.88;;;;;;;12.82;79.16;101788.84;7359770;19;20026;-62
2023/06/07 05:26:11;;;;;;;7.75;3.08;;;;;;;12.80;79.49;101789.94;7365980;19;20014;-63
2023/06/07 05:28:38;;;;;;;12.00;3.13;;;;;;;12.80;79.61;101793.41;7365797;19;20010;-62
2023/06/07 05:31:05;;;;;;;10.07;3.45;;;;;;;12.80;79.96;101795.22;7362124;19;20014;-63
2023/06/07 05:33:36;;;;;;;9.38;3.97;;;;;;;12.83;79.86;101800.25;7365195;19;20022;-63
2023/06/07 05:36:04;;;;;;;10.10;3.50;;;;;;;12.90;79.46;101793.38;7365852;19;20032;-63
2023/06/07 05:38:31;;;;;;;7.85;3.70;;;;;;;12.91;79.65;101794.22;7366446;19;20035;-62
2023/06/07 05:40:58;;;;;;;9.65;3.67;;;;;;;12.89;79.65;101798.84;7367505;19;20126;-63
2023/06/07 05:43:25;;;;;;;9.63;3.33;;;;;;;12.93;79.40;101806.34;7365203;19;20011;-64
2023/06/07 05:45:52;;;;;;;8.52;3.58;;;;;;;12.93;79.32;101792.28;7365738;19;20093;-63
2023/06/07 05:48:20;;;;;;;8.75;4.13;;;;;;;12.98;79.58;101797.97;7362358;19;20530;-62
2023/06/07 05:50:47;;;;;;;7.70;3.42;;;;;;;13.00;79.20;101798.66;7364440;19;21850;-63
2023/06/07 05:53:15;;;;;;;7.38;3.53;;;;;;;12.99;79.43;101797.84;7368149;19;20003;-63
2023/06/07 05:55:45;;;;;;;11.60;4.07;;;;;;;12.85;79.78;101801.75;7367431;19;20126;-64
2023/06/07 05:58:12;;;;;;;8.48;3.00;;;;;;;12.85;80.07;101796.47;7371114;19;20018;-64
2023/06/07 06:00:40;;;;;;;6.78;3.03;;;;;;;12.84;80.01;101797.47;7367212;19;20502;-62
2023/06/07 06:03:08;;;;;;;7.65;2.92;;;;;;;12.87;80.32;101804.25;7363672;19;20015;-64
2023/06/07 06:05:37;;;;;;;10.35;3.60;;;;;;;12.92;80.02;101796.72;7367120;19;20117;-62
2023/06/07 06:08:05;;;;;;;5.95;2.92;;;;;;;12.95;79.78;101801.75;7364897;19;20027;-63
2023/06/07 06:10:32;;;;;;;10.85;3.85;;;;;;;12.97;80.23;101802.41;7365760;19;20026;-64
2023/06/07 06:13:01;;;;;;;8.32;3.60;;;;;;;13.05;80.03;101791.16;7365156;19;20610;-63
2023/06/07 06:15:29;;;;;;;8.82;3.47;;;;;;;13.04;80.00;101797.41;7365632;19;20018;-63
2023/06/07 06:17:56;;;;;;;9.02;3.75;;;;;;;13.04;80.00;101792.94;7363659;19;20037;-63
2023/06/07 06:20:23;;;;;;;10.75;3.15;;;;;;;12.88;80.33;101800.66;7366661;19;20486;-62
2023/06/07 06:22:50;;;;;;;6.95;3.15;;;;;;;12.85;80.68;101800.91;7363009;19;20015;-64
2023/06/07 06:25:18;;;;;;;7.03;3.10;;;;;;;12.78;80.78;101798.03;7368658;19;20014;-63
2023/06/07 06:27:45;;;;;;;10.52;3.50;;;;;;;12.82;81.22;101803.84;7368549;19;20467;-63
2023/06/07 06:30:13;;;;;;;11.02;3.63;;;;;;;12.85;80.69;101804.38;7367041;19;20011;-62
2023/06/07 06:32:40;;;;;;;8.35;2.83;;;;;;;12.88;81.02;101811.22;7361776;19;20018;-62
2023/06/07 06:35:08;;;;;;;9.32;4.57;;;;;;;12.92;80.91;101823.16;7364431;19;20015;-62
2023/06/07 06:37:35;;;;;;;11.13;3.38;;;;;;;12.97;80.56;101815.63;7363413;19;21071;-64
2023/06/07 06:40:04;;;;;;;7.35;3.45;;;;;;;13.00;80.60;101827.72;7364562;19;20354;-63
2023/06/07 06:42:32;;;;;;;10.93;3.58;;;;;;;12.91;80.47;101815.34;7363250;19;20085;-63
2023/06/07 06:44:59;;;;;;;10.35;3.53;;;;;;;12.97;80.77;101823.56;7362084;19;20006;-63
2023/06/07 06:47:27;;;;;;;11.20;3.90;;;;;;;12.99;80.71;101820.78;7359663;19;20093;-62
2023/06/07 06:49:54;;;;;;;8.73;4.00;;;;;;;13.02;80.34;101818.66;7363778;19;20047;-62
2023/06/07 06:52:21;;;;;;;11.30;3.08;;;;;;;13.02;80.31;101831.03;7365372;19;20018;-62
2023/06/07 06:54:48;;;;;;;7.72;2.85;;;;;;;12.97;80.16;101831.47;7366866;19;20030;-63
2023/06/07 06:57:16;;;;;;;6.90;3.08;;;;;;;13.04;81.81;101827.31;7363605;19;20014;-64
2023/06/07 06:59:43;;;;;;;8.52;3.17;;;;;;;13.01;80.27;101832.84;7365437;19;20383;-62
2023/06/07 07:02:11;;;;;;;5.53;3.10;;;;;;;13.05;80.17;101836.91;7362621;19;20558;-63
2023/06/07 07:04:38;;;;;;;10.80;3.00;;;;;;;13.13;80.30;101830.91;7365391;19;20033;-63
2023/06/07 07:07:07;;;;;;;9.15;2.97;;;;;;;13.17;79.52;101834.91;7365010;19;20493;-64
2023/06/07 07:09:34;;;;;;;8.40;3.22;;;;;;;13.22;79.47;101825.59;7362422;19;20720;-63
2023/06/07 07:12:01;;;;;;;10.70;3.22;;;;;;;13.26;79.37;101826.13;7364392;19;20375;-62
2023/06/07 07:14:29;;;;;;;9.23;3.67;;;;;;;13.32;79.47;101833.47;7363847;19;20035;-62
2023/06/07 07:16:56;;;;;;;8.70;3.33;;;;;;;13.46;78.39;101832.97;7361056;19;20086;-63
2023/06/07 07:19:24;;;;;;;6.43;3.35;;;;;;;13.53;77.81;101835.88;7363463;19;20065;-63
2023/06/07 07:21:52;;;;;;;8.23;2.75;;;;;;;13.54;78.30;101835.75;7362594;19;20006;-63
2023/06/07 07:24:20;;;;;;;8.07;3.15;;;;;;;13.59;78.09;101837.94;7362837;19;20018;-63
2023/06/07 07:26:48;;;;;;;6.88;2.95;;;;;;;13.58;77.93;101842.41;7363403;19;20021;-64
2023/06/07 07:29:16;;;;;;;8.82;2.60;;;;;;;13.62;77.58;101850.84;7362082;19;20022;-63
2023/06/07 07:31:43;;;;;;;7.90;2.78;;;;;;;13.64;77.68;101848.91;7360645;19;21310;-63
2023/06/07 07:34:12;;;;;;;10.18;3.30;;;;;;;13.63;77.86;101849.88;7361491;19;21046;-63
2023/06/07 07:36:43;;;;;;;7.05;3.00;;;;;;;13.66;78.20;101852.25;7362568;19;20029;-63
2023/06/07 07:39:12;;;;;;;6.80;2.85;;;;;;;13.74;77.93;101851.50;7362244;19;20020;-63
2023/06/07 07:41:40;;;;;;;7.43;2.78;;;;;;;13.66;77.07;101854.91;7363090;19;20097;-64
2023/06/07 07:44:08;;;;;;;12.02;2.95;;;;;;;13.49;77.95;101850.38;7362860;19;20672;-62
2023/06/07 07:46:36;;;;;;;7.88;2.80;;;;;;;13.44;78.09;101850.81;7361910;19;20483;-63
2023/06/07 07:49:03;;;;;;;10.75;3.05;;;;;;;13.42;78.65;101846.66;7358155;19;20014;-63
2023/06/07 07:51:31;;;;;;;10.13;2.97;;;;;;;13.44;78.55;101840.25;7363832;19;20022;-65
2023/06/07 07:54:00;;;;;;;9.00;3.35;;;;;;;13.35;78.81;101842.94;7364164;19;20023;-63
2023/06/07 07:56:27;;;;;;;9.85;3.42;;;;;;;13.38;78.89;101843.47;7363265;19;21755;-63
2023/06/07 07:58:55;;;;;;;8.30;2.88;;;;;;;13.41;78.88;101839.72;7362095;19;20657;-62
2023/06/07 08:01:23;;;;;;;7.38;2.65;;;;;;;13.31;79.21;101846.84;7362287;19;20608;-62
2023/06/07 08:03:51;;;;;;;6.05;3.22;;;;;;;13.29;79.50;101849.63;7360096;19;20094;-63
2023/06/07 08:06:20;;;;;;;9.20;3.75;;;;;;;13.32;79.53;101837.91;7362235;19;20018;-63
2023/06/07 08:08:47;;;;;;;8.50;3.45;;;;;;;13.43;79.39;101850.97;7361200;19;20033;-63
2023/06/07 08:11:15;;;;;;;6.88;3.17;;;;;;;13.47;78.99;101839.09;7363642;19;20297;-64
2023/06/07 08:13:43;;;;;;;10.18;2.95;;;;;;;13.53;79.66;101849.09;7360690;19;20054;-63
2023/06/07 08:16:11;;;;;;;10.20;4.18;;;;;;;13.67;78.71;101851.25;7358255;19;20014;-63
2023/06/07 08:18:39;;;;;;;8.07;2.75;;;;;;;13.76;77.88;101853.03;7361632;19;20530;-64
2023/06/07 08:21:07;;;;;;;7.90;3.30;;;;;;;13.84;77.72;101844.34;7361259;19;20014;-65
2023/06/07 08:23:36;;;;;;;5.00;2.40;;;;;;;13.88;77.78;101845.69;7362685;19;20023;-64
2023/06/07 08:26:04;;;;;;;8.60;3.33;;;;;;;13.92;77.54;101839.13;7360720;19;20045;-64
2023/06/07 08:28:32;;;;;;;10.73;3.60;;;;;;;14.02;77.16;101837.25;7362144;19;20110;-63
2023/06/07 08:31:01;;;;;;;8.48;3.35;;;;;;;14.06;76.64;101838.63;7358058;19;20055;-64
2023/06/07 08:33:30;;;;;;;10.15;3.70;;;;;;;14.10;77.13;101842.63;7360609;19;20029;-64
2023/06/07 08:35:58;;;;;;;8.00;3.72;;;;;;;14.11;76.64;101837.19;7361896;19;20019;-65
2023/06/07 08:38:25;;;;;;;9.88;3.88;;;;;;;14.19;76.82;101841.72;7360599;19;20022;-63
2023/06/07 08:40:55;;;;;;;11.07;3.42;;;;;;;14.23;76.63;101844.88;7362003;19;20022;-63
2023/06/07 08:43:26;;;;;;;12.65;3.53;;;;;;;14.35;75.62;101841.88;7361235;19;20044;-64
2023/06/07 08:45:56;;;;;;;7.45;2.78;;;;;;;14.38;75.63;101836.28;7360416;19;20317;-64
2023/06/07 08:48:25;;;;;;;9.45;3.30;;;;;;;14.39;76.04;101843.25;7357377;19;20090;-63
2023/06/07 08:50:55;;;;;;;11.23;3.80;;;;;;;14.40;75.46;101836.16;7359638;19;20454;-63
2023/06/07 08:53:28;;;;;;;8.73;3.40;;;;;;;14.47;75.21;101848.66;7359005;19;21064;-65
2023/06/07 08:55:58;;;;;;;10.07;3.70;;;;;;;14.51;74.91;101857.09;7362680;19;20471;-63
2023/06/07 08:58:27;;;;;;;12.35;4.00;;;;;;;14.27;75.79;101848.94;7360989;19;20037;-64
2023/06/07 09:00:59;;;;;;;10.98;3.33;;;;;;;14.29;76.33;101833.69;7367416;19;20018;-63
2023/06/07 09:03:27;;;;;;;9.32;3.25;;;;;;;14.36;76.46;101846.22;7365973;19;20173;-63
2023/06/07 09:05:56;;;;;;;12.45;3.83;;;;;;;14.48;75.46;101846.81;7369805;19;20094;-63
2023/06/07 09:08:23;;;;;;;8.88;4.07;;;;;;;14.44;75.49;101848.94;7367322;19;20018;-63
2023/06/07 09:10:51;;;;;;;5.65;3.28;;;;;;;14.49;75.52;101832.59;7371517;19;20490;-64
2023/06/07 09:13:20;;;;;;;11.27;3.95;;;;;;;14.51;75.73;101844.69;7365237;19;20014;-62
2023/06/07 09:15:51;;;;;;;11.00;3.85;;;;;;;14.52;75.65;101845.53;7365538;19;20047;-63
2023/06/07 09:18:19;;;;;;;8.80;4.07;;;;;;;14.57;75.39;101848.56;7365042;19;20717;-63
2023/06/07 09:20:48;;;;;;;12.65;4.30;;;;;;;14.62;74.61;101856.88;7367539;19;20037;-63
2023/06/07 09:23:16;;;;;;;8.35;3.90;;;;;;;14.48;75.66;101852.94;7364047;19;20018;-63
2023/06/07 09:25:44;;;;;;;9.27;3.88;;;;;;;14.54;75.76;101849.69;7364871;19;20022;-63
2023/06/07 09:28:14;;;;;;;12.07;4.10;;;;;;;14.62;75.34;101851.56;7367674;19;20010;-63
2023/06/07 09:30:54;;;;;;;12.85;4.72;;;;;;;14.68;74.86;101853.59;7363074;19;20034;-63
2023/06/07 09:33:28;;;;;;;9.55;3.67;;;;;;;14.77;74.64;101849.19;7364242;19;20022;-63
2023/06/07 09:36:13;;;;;;;8.38;3.70;;;;;;;14.72;74.68;101831.13;7361471;19;20015;-63
2023/06/07 09:38:41;;;;;;;12.23;4.88;;;;;;;14.75;74.86;101836.09;7366818;19;20007;-63
2023/06/07 09:41:10;;;;;;;12.63;3.75;;;;;;;14.74;74.55;101839.72;7368726;19;20021;-63
2023/06/07 09:43:50;;;;;;;8.75;3.50;;;;;;;14.81;74.68;101832.84;7363548;19;20014;-63
2023/06/07 09:46:19;;;;;;;8.45;3.75;;;;;;;14.91;74.35;101832.72;7362757;19;20901;-63
2023/06/07 09:48:49;;;;;;;9.55;3.50;;;;;;;14.93;74.36;101839.53;7361503;19;20015;-64
2023/06/07 09:51:18;;;;;;;11.90;3.20;;;;;;;15.04;74.11;101835.78;7366035;19;20601;-64
2023/06/07 09:53:57;;;;;;;11.13;4.25;;;;;;;15.14;73.77;101827.72;7366701;19;20074;-62
2023/06/07 09:56:24;;;;;;;6.43;3.10;;;;;;;15.24;73.71;101823.13;7360773;19;20523;-62
2023/06/07 09:59:06;;;;;;;13.90;3.72;;;;;;;15.36;73.64;101827.16;7365400;19;20022;-63
2023/06/07 10:01:38;;;;;;;8.07;2.90;;;;;;;15.51;72.60;101819.44;7362258;19;20114;-64
2023/06/07 10:04:07;;;;;;;8.02;2.95;;;;;;;15.67;72.93;101828.31;7364962;19;20843;-63
2023/06/07 10:06:40;;;;;;;8.27;3.83;;;;;;;15.70;71.57;101835.09;7365586;19;20018;-62
2023/06/07 10:09:09;;;;;;;9.25;2.97;;;;;;;15.61;72.01;101831.59;7365781;19;20027;-63
2023/06/07 10:11:38;;;;;;;9.52;3.78;;;;;;;15.63;72.14;101824.31;7363565;19;20014;-62
2023/06/07 10:14:11;;;;;;;8.88;3.40;;;;;;;15.70;72.33;101838.59;7366633;19;20010;-62
2023/06/07 10:16:45;;;;;;;10.20;3.65;;;;;;;15.80;71.59;101827.84;7364148;19;20018;-63
2023/06/07 10:19:18;;;;;;;7.13;3.20;;;;;;;15.87;71.73;101826.22;7365233;19;20927;-62
2023/06/07 10:21:47;;;;;;;;;;;;;;;15.95;71.27;101826.22;7363499;19;20011;-63
2023/06/07 10:24:22;;;;;;;9.70;3.55;;;;;;;15.99;70.91;101819.59;7365768;19;19941;-62
2023/06/07 10:26:55;;;;;;;11.70;3.33;;;;;;;16.03;71.33;101817.44;7365523;19;20807;-63
2023/06/07 10:29:46;;;;;;;12.52;3.28;;;;;;;16.09;71.00;101819.44;7364641;19;20137;-63
2023/06/07 10:32:20;;;;;;;7.40;3.40;;;;;;;16.25;70.55;101812.31;7362770;19;20018;-62
2023/06/07 10:34:50;;;;;;;9.88;3.60;;;;;;;16.34;70.30;101805.19;7366701;19;20480;-63
2023/06/07 10:37:20;;;;;;;9.07;3.17;;;;;;;16.45;70.48;101804.03;7364868;19;20028;-62
2023/06/07 10:39:48;;;;;;;6.10;2.95;;;;;;;16.57;69.47;101808.81;7364112;19;20019;-63
2023/06/07 10:42:17;;;;;;;11.68;3.25;;;;;;;16.59;69.28;101803.38;7364202;19;20018;-62
2023/06/07 10:44:45;;;;;;;6.63;3.50;;;;;;;16.48;69.82;101793.06;7366236;19;20479;-64
2023/06/07 10:47:21;;;;;;;9.73;3.13;;;;;;;16.54;69.71;101806.50;7360760;19;20019;-63
2023/06/07 10:49:51;;;;;;;9.45;4.38;;;;;;;16.56;69.50;101807.16;7365076;19;20033;-62
2023/06/07 10:52:19;;;;;;;5.90;3.38;;;;;;;16.59;69.42;101796.25;7364526;19;20022;-62
2023/06/07 10:54:47;;;;;;;8.60;3.97;;;;;;;16.63;69.68;101792.25;7368270;19;21047;-63
2023/06/07 10:57:32;;;;;;;7.40;2.55;;;;;;;16.73;69.27;101791.22;7365287;19;20019;-64
2023/06/07 11:00:28;;;;;;;9.95;4.55;;;;;;;16.82;69.50;101792.88;7364779;19;20015;-63
2023/06/07 11:03:10;;;;;;;9.02;3.20;;;;;;;16.97;69.37;101791.16;7362385;19;20037;-62
2023/06/07 11:05:57;;;;;;;11.05;3.30;;;;;;;17.15;68.00;101788.28;7365236;19;20129;-62
2023/06/07 11:08:27;;;;;;;9.20;3.20;;;;;;;17.23;67.39;101786.41;7364154;19;21745;-63
2023/06/07 11:10:58;;;;;;;9.38;3.33;;;;;;;17.32;67.00;101788.03;7363544;19;21687;-61
2023/06/07 11:13:27;;;;;;;7.80;2.75;;;;;;;17.35;67.32;101776.25;7364139;19;20564;-62
2023/06/07 11:16:24;;;;;;;14.70;3.58;;;;;;;17.43;67.92;101786.81;7361172;19;20010;-63
2023/06/07 11:18:55;;;;;;;8.40;3.20;;;;;;;17.42;66.43;101782.53;7362465;19;20051;-66
2023/06/07 11:21:30;;;;;;;8.57;3.08;;;;;;;17.47;67.00;101778.31;7359585;19;20464;-63
2023/06/07 11:24:09;;;;;;;8.73;3.28;;;;;;;17.49;67.05;101773.66;7363217;19;20026;-62
2023/06/07 11:26:37;;;;;;;12.80;4.32;;;;;;;17.59;66.44;101783.25;7358897;19;20363;-62
2023/06/07 11:29:07;;;;;;;13.57;4.00;;;;;;;17.62;66.02;101794.44;7363164;19;20026;-63
2023/06/07 11:31:35;;;;;;;9.00;3.92;;;;;;;17.45;66.42;101775.03;7362970;19;20026;-62
2023/06/07 11:34:03;;;;;;;8.43;3.55;;;;;;;17.38;66.83;101773.22;7360567;19;20021;-63